sensor_id;sensor_type;location;lat;lon;timestamp;pressure;altitude;pressure_sealevel;temperature;humidity
56713;BME280;42589;45.536;9.032;2023-04-06T00:01:03;99933.78;;;14.53;28.44
56713;BME280;42589;45.536;9.032;2023-04-06T00:04:06;99939.88;;;14.31;29.09
56713;BME280;42589;45.536;9.032;2023-04-06T00:07:06;99941.25;;;14.19;28.94
56713;BME280;42589;45.536;9.032;2023-04-06T00:10:07;99944.75;;;14.19;29.27
56713;BME280;42589;45.536;9.032;2023-04-06T00:13:09;99946.81;;;14.01;29.02
56713;BME280;42589;45.536;9.032;2023-04-06T00:16:14;99946.41;;;14.28;29.08
56713;BME280;42589;45.536;9.032;2023-04-06T00:19:15;99928.66;;;13.72;29.63
56713;BME280;42589;45.536;9.032;2023-04-06T00:22:15;99948.66;;;13.92;29.60
56713;BME280;42589;45.536;9.032;2023-04-06T00:25:16;99909.72;;;13.98;29.27
56713;BME280;42589;45.536;9.032;2023-04-06T00:28:17;99910.41;;;13.91;29.23
56713;BME280;42589;45.536;9.032;2023-04-06T00:31:18;99905.22;;;13.98;29.36
56713;BME280;42589;45.536;9.032;2023-04-06T00:34:18;99940.81;;;13.99;29.64
56713;BME280;42589;45.536;9.032;2023-04-06T00:37:19;99923.13;;;13.73;29.60
56713;BME280;42589;45.536;9.032;2023-04-06T00:40:20;99929.25;;;14.06;29.03
56713;BME280;42589;45.536;9.032;2023-04-06T00:43:22;99897.94;;;13.84;28.97
56713;BME280;42589;45.536;9.032;2023-04-06T00:46:23;99935.28;;;14.00;29.07
56713;BME280;42589;45.536;9.032;2023-04-06T00:49:24;99902.78;;;13.72;29.43
56713;BME280;42589;45.536;9.032;2023-04-06T00:52:25;99930.31;;;13.81;29.16
56713;BME280;42589;45.536;9.032;2023-04-06T00:55:26;99912.63;;;13.80;29.12
56713;BME280;42589;45.536;9.032;2023-04-06T00:58:27;99877.75;;;13.57;28.96
56713;BME280;42589;45.536;9.032;2023-04-06T01:01:28;99935.00;;;13.87;29.26
56713;BME280;42589;45.536;9.032;2023-04-06T01:04:29;99904.81;;;13.54;29.20
56713;BME280;42589;45.536;9.032;2023-04-06T01:07:30;99901.50;;;13.43;29.49
56713;BME280;42589;45.536;9.032;2023-04-06T01:10:31;99907.97;;;13.57;29.25
56713;BME280;42589;45.536;9.032;2023-04-06T01:13:32;99905.16;;;13.51;29.77
56713;BME280;42589;45.536;9.032;2023-04-06T01:16:34;99931.84;;;13.59;29.59
56713;BME280;42589;45.536;9.032;2023-04-06T01:19:36;99898.97;;;13.50;29.20
56713;BME280;42589;45.536;9.032;2023-04-06T01:22:38;99933.19;;;13.46;29.47
56713;BME280;42589;45.536;9.032;2023-04-06T01:25:39;99909.81;;;13.57;29.10
56713;BME280;42589;45.536;9.032;2023-04-06T01:28:40;99910.97;;;13.05;30.07
56713;BME280;42589;45.536;9.032;2023-04-06T01:31:40;99935.03;;;13.46;29.52
56713;BME280;42589;45.536;9.032;2023-04-06T01:34:42;99934.16;;;13.70;29.40
56713;BME280;42589;45.536;9.032;2023-04-06T01:37:43;99914.34;;;13.40;29.16
56713;BME280;42589;45.536;9.032;2023-04-06T01:40:43;99891.28;;;12.98;29.62
56713;BME280;42589;45.536;9.032;2023-04-06T01:43:45;99943.72;;;13.56;29.48
56713;BME280;42589;45.536;9.032;2023-04-06T01:46:46;99940.88;;;13.50;29.50
56713;BME280;42589;45.536;9.032;2023-04-06T01:49:48;99941.72;;;13.42;29.62
56713;BME280;42589;45.536;9.032;2023-04-06T01:52:49;99929.97;;;13.02;30.00
56713;BME280;42589;45.536;9.032;2023-04-06T01:55:51;99938.31;;;13.15;30.31
56713;BME280;42589;45.536;9.032;2023-04-06T01:58:52;99943.19;;;13.28;30.04
56713;BME280;42589;45.536;9.032;2023-04-06T02:01:53;99920.81;;;13.13;29.99
56713;BME280;42589;45.536;9.032;2023-04-06T02:04:54;99935.38;;;13.35;29.76
56713;BME280;42589;45.536;9.032;2023-04-06T02:07:55;99934.69;;;13.24;29.99
56713;BME280;42589;45.536;9.032;2023-04-06T02:10:56;99924.66;;;13.18;30.49
56713;BME280;42589;45.536;9.032;2023-04-06T02:13:57;99924.34;;;13.38;29.50
56713;BME280;42589;45.536;9.032;2023-04-06T02:16:58;99939.50;;;13.21;30.07
56713;BME280;42589;45.536;9.032;2023-04-06T02:19:59;99918.81;;;13.07;30.20
56713;BME280;42589;45.536;9.032;2023-04-06T02:23:00;99925.81;;;13.16;29.98
56713;BME280;42589;45.536;9.032;2023-04-06T02:26:01;99926.34;;;13.19;30.26
56713;BME280;42589;45.536;9.032;2023-04-06T02:29:01;99903.44;;;12.84;30.32
56713;BME280;42589;45.536;9.032;2023-04-06T02:32:03;99934.44;;;12.77;30.75
56713;BME280;42589;45.536;9.032;2023-04-06T02:35:04;99929.13;;;12.85;30.75
56713;BME280;42589;45.536;9.032;2023-04-06T02:38:06;99930.34;;;13.07;30.24
56713;BME280;42589;45.536;9.032;2023-04-06T02:41:08;99901.13;;;12.89;30.79
56713;BME280;42589;45.536;9.032;2023-04-06T02:44:08;99928.16;;;13.19;30.10
56713;BME280;42589;45.536;9.032;2023-04-06T02:47:09;99893.03;;;12.48;31.25
56713;BME280;42589;45.536;9.032;2023-04-06T02:50:10;99922.78;;;12.86;30.57
56713;BME280;42589;45.536;9.032;2023-04-06T02:53:11;99889.91;;;12.77;30.53
56713;BME280;42589;45.536;9.032;2023-04-06T02:56:13;99929.63;;;12.89;30.76
56713;BME280;42589;45.536;9.032;2023-04-06T02:59:13;99935.13;;;12.87;30.77
56713;BME280;42589;45.536;9.032;2023-04-06T03:02:14;99933.78;;;12.75;31.07
56713;BME280;42589;45.536;9.032;2023-04-06T03:05:15;99926.44;;;12.69;31.26
56713;BME280;42589;45.536;9.032;2023-04-06T03:08:15;99925.88;;;12.65;31.08
56713;BME280;42589;45.536;9.032;2023-04-06T03:11:16;99909.53;;;12.52;31.49
56713;BME280;42589;45.536;9.032;2023-04-06T03:14:18;99934.78;;;12.82;31.14
56713;BME280;42589;45.536;9.032;2023-04-06T03:17:21;99917.25;;;12.63;31.72
56713;BME280;42589;45.536;9.032;2023-04-06T03:20:23;99928.50;;;12.49;31.69
56713;BME280;42589;45.536;9.032;2023-04-06T03:23:24;99932.38;;;12.54;31.44
56713;BME280;42589;45.536;9.032;2023-04-06T03:26:24;99908.78;;;12.34;31.61
56713;BME280;42589;45.536;9.032;2023-04-06T03:29:26;99931.13;;;12.32;32.11
56713;BME280;42589;45.536;9.032;2023-04-06T03:32:27;99912.66;;;12.39;31.30
56713;BME280;42589;45.536;9.032;2023-04-06T03:35:28;99940.59;;;12.69;31.32
56713;BME280;42589;45.536;9.032;2023-04-06T03:38:29;99940.88;;;12.58;31.45
56713;BME280;42589;45.536;9.032;2023-04-06T03:41:29;99919.13;;;12.37;31.84
56713;BME280;42589;45.536;9.032;2023-04-06T03:44:30;99922.84;;;12.52;31.56
56713;BME280;42589;45.536;9.032;2023-04-06T03:47:31;99915.69;;;12.44;31.38
56713;BME280;42589;45.536;9.032;2023-04-06T03:50:33;99942.53;;;12.51;31.50
56713;BME280;42589;45.536;9.032;2023-04-06T03:53:34;99938.38;;;12.57;31.47
56713;BME280;42589;45.536;9.032;2023-04-06T03:56:36;99949.72;;;12.59;31.54
56713;BME280;42589;45.536;9.032;2023-04-06T03:59:38;99947.81;;;12.35;31.70
56713;BME280;42589;45.536;9.032;2023-04-06T04:02:39;99932.59;;;12.27;32.16
56713;BME280;42589;45.536;9.032;2023-04-06T04:05:42;99940.44;;;12.28;31.97
56713;BME280;42589;45.536;9.032;2023-04-06T04:08:44;99950.81;;;12.40;31.77
56713;BME280;42589;45.536;9.032;2023-04-06T04:11:45;99938.41;;;12.22;31.88
56713;BME280;42589;45.536;9.032;2023-04-06T04:14:46;99952.72;;;11.87;32.49
56713;BME280;42589;45.536;9.032;2023-04-06T04:17:47;99930.66;;;12.03;32.06
56713;BME280;42589;45.536;9.032;2023-04-06T04:20:49;99956.38;;;12.20;31.77
56713;BME280;42589;45.536;9.032;2023-04-06T04:23:51;99950.09;;;12.29;31.65
56713;BME280;42589;45.536;9.032;2023-04-06T04:26:52;99901.78;;;11.20;32.85
56713;BME280;42589;45.536;9.032;2023-04-06T04:29:54;99946.75;;;11.49;33.26
56713;BME280;42589;45.536;9.032;2023-04-06T04:32:55;99939.19;;;11.62;32.75
56713;BME280;42589;45.536;9.032;2023-04-06T04:35:55;99928.66;;;11.79;32.31
56713;BME280;42589;45.536;9.032;2023-04-06T04:38:57;99927.72;;;11.62;32.71
56713;BME280;42589;45.536;9.032;2023-04-06T04:41:58;99955.25;;;11.71;32.91
56713;BME280;42589;45.536;9.032;2023-04-06T04:44:59;99953.66;;;11.60;32.94
56713;BME280;42589;45.536;9.032;2023-04-06T04:48:00;99954.31;;;11.18;34.18
56713;BME280;42589;45.536;9.032;2023-04-06T04:51:03;99959.53;;;11.46;33.24
56713;BME280;42589;45.536;9.032;2023-04-06T04:54:04;99964.78;;;11.37;33.29
56713;BME280;42589;45.536;9.032;2023-04-06T04:57:06;99959.72;;;11.08;33.92
56713;BME280;42589;45.536;9.032;2023-04-06T05:00:08;99954.31;;;11.18;33.75
56713;BME280;42589;45.536;9.032;2023-04-06T05:03:17;99955.34;;;11.43;33.36
56713;BME280;42589;45.536;9.032;2023-04-06T05:06:20;99956.88;;;11.28;33.64
56713;BME280;42589;45.536;9.032;2023-04-06T05:09:21;99960.16;;;11.83;32.90
56713;BME280;42589;45.536;9.032;2023-04-06T05:12:22;99926.78;;;11.45;33.28
56713;BME280;42589;45.536;9.032;2023-04-06T05:15:24;99960.00;;;11.41;33.50
56713;BME280;42589;45.536;9.032;2023-04-06T05:18:25;99961.91;;;11.49;33.50
56713;BME280;42589;45.536;9.032;2023-04-06T05:21:26;99970.28;;;11.36;33.93
56713;BME280;42589;45.536;9.032;2023-04-06T05:24:28;99971.50;;;11.85;33.04
56713;BME280;42589;45.536;9.032;2023-04-06T05:27:29;99974.53;;;11.91;33.08
56713;BME280;42589;45.536;9.032;2023-04-06T05:30:33;99970.00;;;11.65;33.74
56713;BME280;42589;45.536;9.032;2023-04-06T05:33:35;99980.91;;;11.98;32.89
56713;BME280;42589;45.536;9.032;2023-04-06T05:36:37;99936.91;;;11.68;33.22
56713;BME280;42589;45.536;9.032;2023-04-06T05:39:38;99979.47;;;12.38;32.18
56713;BME280;42589;45.536;9.032;2023-04-06T05:42:40;99976.16;;;12.44;32.24
56713;BME280;42589;45.536;9.032;2023-04-06T05:45:47;99947.22;;;11.89;33.10
56713;BME280;42589;45.536;9.032;2023-04-06T05:48:48;99966.28;;;12.02;32.94
56713;BME280;42589;45.536;9.032;2023-04-06T05:51:49;99968.59;;;11.97;32.66
56713;BME280;42589;45.536;9.032;2023-04-06T05:54:49;99967.38;;;11.73;33.40
56713;BME280;42589;45.536;9.032;2023-04-06T05:57:50;99972.47;;;11.41;33.50
56713;BME280;42589;45.536;9.032;2023-04-06T06:01:04;99973.16;;;11.07;34.05
56713;BME280;42589;45.536;9.032;2023-04-06T06:04:17;99983.53;;;11.90;33.06
56713;BME280;42589;45.536;9.032;2023-04-06T06:07:21;99982.25;;;12.28;32.02
56713;BME280;42589;45.536;9.032;2023-04-06T06:10:22;99965.09;;;12.73;31.58
56713;BME280;42589;45.536;9.032;2023-04-06T06:13:23;99954.09;;;12.34;31.56
56713;BME280;42589;45.536;9.032;2023-04-06T06:16:24;99927.91;;;12.21;31.62
56713;BME280;42589;45.536;9.032;2023-04-06T06:19:25;99977.34;;;12.49;31.44
56713;BME280;42589;45.536;9.032;2023-04-06T06:22:27;99939.22;;;12.65;30.95
56713;BME280;42589;45.536;9.032;2023-04-06T06:25:27;99984.69;;;13.06;30.69
56713;BME280;42589;45.536;9.032;2023-04-06T06:28:31;99962.19;;;13.17;30.67
56713;BME280;42589;45.536;9.032;2023-04-06T06:31:31;99997.78;;;13.50;29.95
56713;BME280;42589;45.536;9.032;2023-04-06T06:34:33;99993.13;;;13.36;30.53
56713;BME280;42589;45.536;9.032;2023-04-06T06:37:37;99987.94;;;13.34;30.14
56713;BME280;42589;45.536;9.032;2023-04-06T06:40:40;100004.78;;;13.76;30.29
56713;BME280;42589;45.536;9.032;2023-04-06T06:43:41;99982.03;;;14.12;28.82
56713;BME280;42589;45.536;9.032;2023-04-06T06:46:42;100009.66;;;13.64;30.26
56713;BME280;42589;45.536;9.032;2023-04-06T06:49:42;100004.47;;;13.54;29.76
56713;BME280;42589;45.536;9.032;2023-04-06T06:52:43;99992.09;;;13.94;29.54
56713;BME280;42589;45.536;9.032;2023-04-06T06:55:44;99999.78;;;15.00;28.35
56713;BME280;42589;45.536;9.032;2023-04-06T07:01:50;99998.72;;;15.32;27.69
56713;BME280;42589;45.536;9.032;2023-04-06T07:04:51;99989.69;;;14.71;27.93
56713;BME280;42589;45.536;9.032;2023-04-06T07:07:53;99985.94;;;15.43;27.41
56713;BME280;42589;45.536;9.032;2023-04-06T07:10:53;100009.00;;;15.90;27.72
56713;BME280;42589;45.536;9.032;2023-04-06T07:13:56;100008.78;;;16.14;26.79
56713;BME280;42589;45.536;9.032;2023-04-06T07:16:57;100003.88;;;16.18;26.73
56713;BME280;42589;45.536;9.032;2023-04-06T07:19:58;99994.25;;;16.23;25.90
56713;BME280;42589;45.536;9.032;2023-04-06T07:22:59;99996.75;;;16.55;24.37
56713;BME280;42589;45.536;9.032;2023-04-06T07:26:00;99995.03;;;15.94;25.18
56713;BME280;42589;45.536;9.032;2023-04-06T07:29:01;100002.78;;;16.27;24.18
56713;BME280;42589;45.536;9.032;2023-04-06T07:32:01;99996.09;;;16.08;24.17
56713;BME280;42589;45.536;9.032;2023-04-06T07:35:03;100003.13;;;16.54;24.70
56713;BME280;42589;45.536;9.032;2023-04-06T07:38:05;99996.91;;;16.98;24.30
56713;BME280;42589;45.536;9.032;2023-04-06T07:41:09;100006.38;;;16.79;25.03
56713;BME280;42589;45.536;9.032;2023-04-06T07:44:10;99996.38;;;16.73;24.01
56713;BME280;42589;45.536;9.032;2023-04-06T07:47:11;100006.75;;;17.12;22.57
56713;BME280;42589;45.536;9.032;2023-04-06T07:50:12;100005.28;;;17.09;22.92
56713;BME280;42589;45.536;9.032;2023-04-06T07:53:13;99986.53;;;16.94;23.58
56713;BME280;42589;45.536;9.032;2023-04-06T07:56:17;100006.69;;;17.42;21.82
56713;BME280;42589;45.536;9.032;2023-04-06T07:59:19;100004.41;;;17.24;21.87
56713;BME280;42589;45.536;9.032;2023-04-06T08:02:20;99996.94;;;16.83;21.86
56713;BME280;42589;45.536;9.032;2023-04-06T08:05:20;99995.50;;;17.02;22.28
56713;BME280;42589;45.536;9.032;2023-04-06T08:08:21;99990.66;;;16.76;22.57
56713;BME280;42589;45.536;9.032;2023-04-06T08:11:23;100001.28;;;17.63;22.37
56713;BME280;42589;45.536;9.032;2023-04-06T08:14:24;99987.28;;;17.03;22.13
56713;BME280;42589;45.536;9.032;2023-04-06T08:17:25;99984.19;;;17.71;21.98
56713;BME280;42589;45.536;9.032;2023-04-06T08:20:27;99988.59;;;17.57;21.98
56713;BME280;42589;45.536;9.032;2023-04-06T08:23:29;99989.19;;;17.74;21.66
56713;BME280;42589;45.536;9.032;2023-04-06T08:26:31;100002.63;;;17.95;21.25
56713;BME280;42589;45.536;9.032;2023-04-06T08:29:33;99993.69;;;17.67;22.10
56713;BME280;42589;45.536;9.032;2023-04-06T08:32:39;99996.88;;;17.55;21.76
56713;BME280;42589;45.536;9.032;2023-04-06T08:35:41;99995.91;;;17.84;21.80
56713;BME280;42589;45.536;9.032;2023-04-06T08:38:42;99995.72;;;16.85;23.51
56713;BME280;42589;45.536;9.032;2023-04-06T08:41:46;99986.00;;;17.42;22.03
56713;BME280;42589;45.536;9.032;2023-04-06T08:44:50;99977.97;;;16.10;24.18
56713;BME280;42589;45.536;9.032;2023-04-06T08:47:54;99998.19;;;17.88;23.21
56713;BME280;42589;45.536;9.032;2023-04-06T08:50:55;99977.63;;;18.36;22.95
56713;BME280;42589;45.536;9.032;2023-04-06T08:53:58;99979.84;;;18.26;22.39
56713;BME280;42589;45.536;9.032;2023-04-06T08:56:59;99978.47;;;18.02;22.40
56713;BME280;42589;45.536;9.032;2023-04-06T09:00:00;99970.19;;;18.38;22.56
56713;BME280;42589;45.536;9.032;2023-04-06T09:03:03;99968.59;;;18.50;23.27
56713;BME280;42589;45.536;9.032;2023-04-06T09:06:06;99979.25;;;17.96;23.11
56713;BME280;42589;45.536;9.032;2023-04-06T09:09:30;99970.66;;;18.14;23.25
56713;BME280;42589;45.536;9.032;2023-04-06T09:12:31;99963.22;;;18.50;23.52
56713;BME280;42589;45.536;9.032;2023-04-06T09:15:32;99949.81;;;18.70;22.80
56713;BME280;42589;45.536;9.032;2023-04-06T09:18:33;99950.59;;;18.51;22.60
56713;BME280;42589;45.536;9.032;2023-04-06T09:21:35;99951.00;;;18.54;22.29
56713;BME280;42589;45.536;9.032;2023-04-06T09:24:49;99960.38;;;18.65;21.51
56713;BME280;42589;45.536;9.032;2023-04-06T09:28:02;99964.28;;;19.04;21.09
56713;BME280;42589;45.536;9.032;2023-04-06T09:31:03;99958.22;;;18.89;22.10
56713;BME280;42589;45.536;9.032;2023-04-06T09:34:04;99937.50;;;18.41;22.40
56713;BME280;42589;45.536;9.032;2023-04-06T09:37:15;99954.13;;;19.13;21.90
56713;BME280;42589;45.536;9.032;2023-04-06T09:40:16;99954.41;;;18.28;22.19
56713;BME280;42589;45.536;9.032;2023-04-06T09:43:26;99937.50;;;18.41;22.01
56713;BME280;42589;45.536;9.032;2023-04-06T09:46:29;99948.75;;;19.13;21.45
56713;BME280;42589;45.536;9.032;2023-04-06T09:49:33;99949.59;;;19.33;21.89
56713;BME280;42589;45.536;9.032;2023-04-06T09:52:38;99932.34;;;19.08;21.90
56713;BME280;42589;45.536;9.032;2023-04-06T09:55:42;99951.44;;;18.17;22.38
56713;BME280;42589;45.536;9.032;2023-04-06T09:58:56;99942.94;;;18.61;22.54
56713;BME280;42589;45.536;9.032;2023-04-06T10:01:59;99947.53;;;19.29;21.91
56713;BME280;42589;45.536;9.032;2023-04-06T10:05:24;99953.66;;;18.96;22.18
56713;BME280;42589;45.536;9.032;2023-04-06T10:08:27;99942.53;;;19.19;22.48
56713;BME280;42589;45.536;9.032;2023-04-06T10:11:28;99942.47;;;18.86;22.64
56713;BME280;42589;45.536;9.032;2023-04-06T10:14:31;99937.34;;;19.44;22.35
56713;BME280;42589;45.536;9.032;2023-04-06T10:17:33;99933.09;;;17.21;23.66
56713;BME280;42589;45.536;9.032;2023-04-06T10:20:50;99936.88;;;17.05;23.88
56713;BME280;42589;45.536;9.032;2023-04-06T10:23:54;99926.72;;;18.41;22.86
56713;BME280;42589;45.536;9.032;2023-04-06T10:26:57;99925.50;;;18.92;23.62
56713;BME280;42589;45.536;9.032;2023-04-06T10:30:06;99930.13;;;19.44;21.77
56713;BME280;42589;45.536;9.032;2023-04-06T10:33:18;99929.09;;;19.85;21.45
56713;BME280;42589;45.536;9.032;2023-04-06T10:36:25;99924.69;;;19.11;22.45
56713;BME280;42589;45.536;9.032;2023-04-06T10:39:26;99913.88;;;18.91;22.04
56713;BME280;42589;45.536;9.032;2023-04-06T10:42:37;99920.56;;;19.82;23.03
56713;BME280;42589;45.536;9.032;2023-04-06T10:45:38;99897.13;;;19.62;21.73
56713;BME280;42589;45.536;9.032;2023-04-06T10:48:41;99919.91;;;20.13;21.83
56713;BME280;42589;45.536;9.032;2023-04-06T10:51:53;99912.19;;;20.30;21.86
56713;BME280;42589;45.536;9.032;2023-04-06T10:54:54;99906.06;;;20.54;21.26
56713;BME280;42589;45.536;9.032;2023-04-06T10:57:57;99886.63;;;20.26;20.75
56713;BME280;42589;45.536;9.032;2023-04-06T11:00:58;99896.97;;;19.64;21.35
56713;BME280;42589;45.536;9.032;2023-04-06T11:04:00;99896.06;;;19.97;21.41
56713;BME280;42589;45.536;9.032;2023-04-06T11:07:01;99892.59;;;20.41;21.69
56713;BME280;42589;45.536;9.032;2023-04-06T11:10:02;99892.13;;;18.93;22.09
56713;BME280;42589;45.536;9.032;2023-04-06T11:13:03;99879.63;;;18.65;21.72
56713;BME280;42589;45.536;9.032;2023-04-06T11:16:06;99885.59;;;18.06;22.52
56713;BME280;42589;45.536;9.032;2023-04-06T11:19:07;99862.31;;;19.54;22.19
56713;BME280;42589;45.536;9.032;2023-04-06T11:22:08;99869.97;;;19.84;21.01
56713;BME280;42589;45.536;9.032;2023-04-06T11:25:08;99870.63;;;20.37;21.49
56713;BME280;42589;45.536;9.032;2023-04-06T11:28:09;99867.00;;;20.95;20.34
56713;BME280;42589;45.536;9.032;2023-04-06T11:31:10;99847.50;;;19.97;20.86
56713;BME280;42589;45.536;9.032;2023-04-06T11:34:22;99851.09;;;21.05;20.80
56713;BME280;42589;45.536;9.032;2023-04-06T11:37:26;99831.09;;;20.50;21.46
56713;BME280;42589;45.536;9.032;2023-04-06T11:40:26;99829.75;;;20.27;21.98
56713;BME280;42589;45.536;9.032;2023-04-06T11:43:30;99851.09;;;21.05;20.80
56713;BME280;42589;45.536;9.032;2023-04-06T11:46:31;99827.50;;;21.69;20.76
56713;BME280;42589;45.536;9.032;2023-04-06T11:49:33;99825.38;;;21.71;20.60
56713;BME280;42589;45.536;9.032;2023-04-06T11:52:39;99847.44;;;21.00;20.21
56713;BME280;42589;45.536;9.032;2023-04-06T11:55:40;99839.28;;;19.25;22.01
56713;BME280;42589;45.536;9.032;2023-04-06T11:58:40;99831.22;;;21.00;21.06
56713;BME280;42589;45.536;9.032;2023-04-06T12:01:45;99832.66;;;19.47;21.28
56713;BME280;42589;45.536;9.032;2023-04-06T12:04:48;99811.09;;;20.19;21.61
56713;BME280;42589;45.536;9.032;2023-04-06T12:07:50;99816.88;;;21.68;20.64
56713;BME280;42589;45.536;9.032;2023-04-06T12:10:55;99809.69;;;21.98;20.12
56713;BME280;42589;45.536;9.032;2023-04-06T12:13:56;99789.94;;;21.11;20.98
56713;BME280;42589;45.536;9.032;2023-04-06T12:16:59;99789.44;;;21.46;20.04
56713;BME280;42589;45.536;9.032;2023-04-06T12:20:00;99797.94;;;21.24;20.40
56713;BME280;42589;45.536;9.032;2023-04-06T12:23:01;99797.72;;;21.88;20.72
56713;BME280;42589;45.536;9.032;2023-04-06T12:26:03;99788.31;;;22.09;20.08
56713;BME280;42589;45.536;9.032;2023-04-06T12:29:04;99768.09;;;22.11;19.55
56713;BME280;42589;45.536;9.032;2023-04-06T12:32:08;99765.84;;;22.08;19.55
56713;BME280;42589;45.536;9.032;2023-04-06T12:35:09;99774.03;;;22.50;20.07
56713;BME280;42589;45.536;9.032;2023-04-06T12:38:12;99780.75;;;23.01;19.11
56713;BME280;42589;45.536;9.032;2023-04-06T12:41:13;99755.50;;;22.35;19.99
56713;BME280;42589;45.536;9.032;2023-04-06T12:44:14;99769.44;;;22.51;19.77
56713;BME280;42589;45.536;9.032;2023-04-06T12:47:15;99766.63;;;23.11;19.67
56713;BME280;42589;45.536;9.032;2023-04-06T12:50:16;99768.38;;;23.17;19.76
56713;BME280;42589;45.536;9.032;2023-04-06T12:53:16;99766.25;;;23.31;19.51
56713;BME280;42589;45.536;9.032;2023-04-06T12:56:18;99751.38;;;22.75;19.48
56713;BME280;42589;45.536;9.032;2023-04-06T12:59:19;99757.47;;;22.58;19.37
56713;BME280;42589;45.536;9.032;2023-04-06T13:02:20;99751.72;;;23.60;20.10
56713;BME280;42589;45.536;9.032;2023-04-06T13:05:22;99740.34;;;23.99;19.35
56713;BME280;42589;45.536;9.032;2023-04-06T13:08:22;99723.34;;;20.98;20.25
56713;BME280;42589;45.536;9.032;2023-04-06T13:11:23;99753.81;;;20.49;20.63
56713;BME280;42589;45.536;9.032;2023-04-06T13:14:26;99752.34;;;20.59;20.82
56713;BME280;42589;45.536;9.032;2023-04-06T13:17:27;99746.88;;;21.16;19.94
56713;BME280;42589;45.536;9.032;2023-04-06T13:20:28;99732.03;;;22.17;19.61
56713;BME280;42589;45.536;9.032;2023-04-06T13:23:29;99737.88;;;21.47;19.95
56713;BME280;42589;45.536;9.032;2023-04-06T13:26:30;99733.38;;;21.90;19.21
56713;BME280;42589;45.536;9.032;2023-04-06T13:29:31;99737.75;;;22.51;19.33
56713;BME280;42589;45.536;9.032;2023-04-06T13:32:32;99723.84;;;23.13;18.39
56713;BME280;42589;45.536;9.032;2023-04-06T13:35:33;99704.13;;;21.98;19.71
56713;BME280;42589;45.536;9.032;2023-04-06T13:38:35;99709.63;;;23.46;19.58
56713;BME280;42589;45.536;9.032;2023-04-06T13:41:39;99697.88;;;24.38;18.69
56713;BME280;42589;45.536;9.032;2023-04-06T13:44:40;99709.66;;;23.98;18.78
56713;BME280;42589;45.536;9.032;2023-04-06T13:47:42;99707.75;;;23.70;18.21
56713;BME280;42589;45.536;9.032;2023-04-06T13:50:44;99700.63;;;22.28;18.92
56713;BME280;42589;45.536;9.032;2023-04-06T13:53:46;99685.72;;;21.40;19.37
56713;BME280;42589;45.536;9.032;2023-04-06T13:56:47;99702.91;;;22.43;18.99
56713;BME280;42589;45.536;9.032;2023-04-06T13:59:48;99699.75;;;21.67;18.74
56713;BME280;42589;45.536;9.032;2023-04-06T14:02:54;99693.28;;;21.31;18.64
56713;BME280;42589;45.536;9.032;2023-04-06T14:05:58;99667.50;;;19.72;20.38
56713;BME280;42589;45.536;9.032;2023-04-06T14:09:04;99698.84;;;20.43;19.48
56713;BME280;42589;45.536;9.032;2023-04-06T14:12:05;99696.78;;;20.70;19.26
56713;BME280;42589;45.536;9.032;2023-04-06T14:15:11;99688.84;;;20.18;19.78
56713;BME280;42589;45.536;9.032;2023-04-06T14:18:13;99676.41;;;20.74;19.51
56713;BME280;42589;45.536;9.032;2023-04-06T14:21:13;99656.34;;;20.63;19.96
56713;BME280;42589;45.536;9.032;2023-04-06T14:24:15;99669.00;;;20.63;19.89
56713;BME280;42589;45.536;9.032;2023-04-06T14:27:17;99654.56;;;21.86;18.18
56713;BME280;42589;45.536;9.032;2023-04-06T14:30:18;99663.06;;;20.54;19.95
56713;BME280;42589;45.536;9.032;2023-04-06T14:33:20;99666.38;;;19.41;20.77
56713;BME280;42589;45.536;9.032;2023-04-06T14:36:21;99646.91;;;19.39;20.40
56713;BME280;42589;45.536;9.032;2023-04-06T14:39:22;99644.94;;;21.60;19.79
56713;BME280;42589;45.536;9.032;2023-04-06T14:42:22;99642.97;;;22.39;18.92
56713;BME280;42589;45.536;9.032;2023-04-06T14:45:23;99651.75;;;21.26;19.57
56713;BME280;42589;45.536;9.032;2023-04-06T14:48:24;99650.56;;;21.40;19.21
56713;BME280;42589;45.536;9.032;2023-04-06T14:51:25;99651.81;;;21.56;19.68
56713;BME280;42589;45.536;9.032;2023-04-06T14:54:46;99640.53;;;20.35;19.87
56713;BME280;42589;45.536;9.032;2023-04-06T14:57:47;99630.47;;;20.24;19.72
56713;BME280;42589;45.536;9.032;2023-04-06T15:00:47;99642.25;;;22.44;18.73
56713;BME280;42589;45.536;9.032;2023-04-06T15:03:48;99648.28;;;22.69;18.27
56713;BME280;42589;45.536;9.032;2023-04-06T15:06:49;99628.09;;;21.21;18.86
56713;BME280;42589;45.536;9.032;2023-04-06T15:09:51;99649.47;;;20.04;19.94
56713;BME280;42589;45.536;9.032;2023-04-06T15:12:53;99644.31;;;21.03;20.38
56713;BME280;42589;45.536;9.032;2023-04-06T15:15:53;99645.28;;;21.27;19.36
56713;BME280;42589;45.536;9.032;2023-04-06T15:18:54;99645.25;;;20.47;19.56
56713;BME280;42589;45.536;9.032;2023-04-06T15:21:57;99645.97;;;21.89;19.11
56713;BME280;42589;45.536;9.032;2023-04-06T15:24:58;99649.66;;;20.09;19.74
56713;BME280;42589;45.536;9.032;2023-04-06T15:27:59;99646.78;;;20.61;20.31
56713;BME280;42589;45.536;9.032;2023-04-06T15:30:59;99631.25;;;19.10;21.03
56713;BME280;42589;45.536;9.032;2023-04-06T15:34:00;99640.53;;;20.35;20.39
56713;BME280;42589;45.536;9.032;2023-04-06T15:37:03;99622.91;;;21.20;19.15
56713;BME280;42589;45.536;9.032;2023-04-06T15:40:05;99642.22;;;22.20;18.87
56713;BME280;42589;45.536;9.032;2023-04-06T15:43:06;99646.00;;;20.79;20.22
56713;BME280;42589;45.536;9.032;2023-04-06T15:46:10;99638.78;;;21.83;20.05
56713;BME280;42589;45.536;9.032;2023-04-06T15:49:11;99627.09;;;20.29;20.32
56713;BME280;42589;45.536;9.032;2023-04-06T15:52:13;99631.50;;;20.23;20.24
56713;BME280;42589;45.536;9.032;2023-04-06T15:55:13;99616.13;;;20.49;20.35
56713;BME280;42589;45.536;9.032;2023-04-06T15:58:17;99635.94;;;21.48;19.98
56713;BME280;42589;45.536;9.032;2023-04-06T16:01:18;99618.41;;;21.14;19.94
56713;BME280;42589;45.536;9.032;2023-04-06T16:04:18;99626.00;;;22.67;19.15
56713;BME280;42589;45.536;9.032;2023-04-06T16:07:19;99615.97;;;21.91;19.66